Aérodrome :
LOGIN :

S'inscrire | Disclaimer

   EN    FR    IT 

 










Légende :    VFR   VFR Marginal   IFR   IFR Intensif   IFR Très Intensif
Visi : 
Plafond : 
>= 8 km
>= 3000ft
5 à 8 km
1000 à 3000 ft
1500m à 5 km
500 à 1000 ft
800 à 1500m
200 à 500 ft
< 800m
< 200 ft
Symboles :   Orages  Brouillard  Fortes neiges  Fortes précipitations  Vent > 20 kt
SIGMETs :   Divers  Orages  Givrage  Turbulence  Onde Orograph.  Cendres Volcan.






- Altitude de l'aérodrome : 233 ft
- Code IATA : REU


LERS - Reus Tarragona

DERNIER METAR :
  • 310730Z 12004KT 060V200 9999 FEW025 21/17 Q1014

METARs EXPIRÉS :
  • 310700Z 02003KT 350V050 9999 FEW025 21/17 Q1014
  • 310630Z 02005KT 310V050 9999 FEW025 20/16 Q1014
  • 310600Z 01003KT 350V050 9999 FEW025 19/17 Q1014
  • 310530Z 36005KT 9999 FEW025 18/17 Q1014
  • 310500Z 36005KT 9999 FEW025 17/16 Q1014
  • 310430Z AUTO 36005KT 9999 ////// 17/16 Q1014

TAF TAF LERS
Valide du 31 à 03h jusqu'au 01 à 03h UTC


310200Z 3103/0103 VRB04KT 9999 SCT030 TX25/3112Z TN16/3106Z
TEMPO 3103/3105 3000 BR BKN013
BECMG 3107/3109 15010KT
BECMG 3118/3120 VRB03KT



MET'MAP, la Météo Aéronautique d'un coup d'oeil ! - Copyright ORBIFLY Décembre 2007 - Disclaimer

ORBIFLY MET'MAP TEAM :

Programmation & Développement : Alexandra Zaïnal
Sur une idée originale de : Baudouin d'Aumeries
Assistance à la programmation : Marc-Olivier Méhu
Soutien technique & logistique : Manuel Goepfert

Contact : metmap@orbifly.com




SOURCES & CREDITS :

   NOAA